LiveATC.Net - Listen to live air traffic control over the Internet! Contact LiveATC.net for advertising information

Find LiveATC Audio Streams


Airport/ARTCC Code

Frequency
(e.g., 124.400, 128.75)
Site-wide search

Browse LiveATC Feeds
LiveATC Coverage Map
Top 50 LiveATC Feeds
Bad Weather Areas

LiveATC FAQ
Offer a LiveATC Feed
Contact LiveATC.net
Press Inquiries

LiveATC on iPhone
LiveATC on Android

LiveATC Mobile
(Mobile browser)

ATC Audio Archives
Interesting Recordings

LiveATC Forums

Home Page
About LiveATC.net
Make a Donation
LiveATC Bookstore

Terms of Use
Privacy Policy

ATC/Radar Sites
U.S. ARTCC Freqs
Canadian Air Freqs

AIRMETs/SIGMETs

FAA Airport Status
Nat'l Airspace Status
Arrival Demand Charts


Server Software By:
Icecast.org
Liquidsoap


Current Potentially Bad Weather Airports
(updated every 30 minutes - sorted alphabetically by ICAO code)



This page lists LiveATC.net airport areas that may be interesting to listen to because of challenging flying (weather) conditions. Challenging weather conditions include low ceilings, limited visibility, high or gusty winds, or thunderstorms. This is an evolving new feature and comments are welcome.

Updated: Fri Aug 1 01:40:01 UTC 2014
Click on airport name to go to that airport area's feeds.

Australia - ATC Satellite Feed
WX MAP UNAVAILABLEYSSY 010100Z 28015G26KT 230V300 CAVOK 19/M02 Q1007 FM0100 MOD/SEV TURB BLW 5000FT
KABQ Twr/App/ZAB
kabqKABQ 010123Z 04011KT 10SM -RA SCT060 BKN100 OVC200 21/13 A3022 RMK AO2 LTG DSNT E-S TSE23 MTNS OBSC NE P0000 T02110133
KASE Del/Gnd/Twr/ZDC
kaseKASE 010053Z 21006KT 10SM VCTS SCT044 BKN090 BKN110 18/10 A3032 RMK AO2 RAB05E41 TSB42E44E45 SLP158 TS SW MOV E OCNL LTGCG P0000 T01780100
KAUS Del/Gnd/Twr/App #1
kausKAUS 010053Z 01013KT 10SM SCT060 BKN090 BKN250 32/21 A2990 RMK AO2 TSB20E49 SLP112 TS MOV SE OCNL LTG DSNT SE SHRA DSNT SE T03170206
KBOI Twr/App
kboiKBOI 010120Z 05016G26KT 10SM CLR 32/07 A3002 RMK AO2 PK WND 03027/0109 WSHFT 0100 LTG DSNT NE AND E
KCLL Gnd/Twr/App
kcllKCLL 010053Z 13003KT 10SM SCT045 BKN055 26/24 A2992 RMK AO2 LTG DSNT SE-SW RAE20 TSE2359 SLP126 P0037 T02610244
KCLT Ground/Tower
kcltKCLT 010059Z 16006KT 2SM +TSRA BR SCT006 BKN019 OVC035CB 21/19 A3014 RMK AO2 TWR VIS 2 1/2 FRQ LTGICCG S-W TS OHD MOV N P0006 $
KHQZ Gnd/Twr
khqzKHQZ 010048Z 34008G15KT 5SM -DZ OVC009 22/20 A2998
KIAH Tower
kiahKIAH 010053Z 18009KT 10SM FEW040 SCT130 BKN250 30/24 A2988 RMK AO2 SLP118 DSNT LTGCG NW T03000239
KMCO App (Disney/Ovido Satellite)
kmcoKSFB 010105Z 11005KT 10SM VCTS BKN055 BKN110 27/24 A2997 RMK AO2 LTG DSNT NE AND E T02720239
KMCO App (Disney/Ovido Satellite)
kmcoKORL 010053Z 09006KT 10SM SCT055 29/24 A2996 RMK AO2 LTG DSNT NE SLP148 T02940244
KPRC Practice Area
kprcKPRC 010053Z 07013G26KT 10SM TSRA SCT050 BKN090 BKN110CB 19/14 A3020 RMK AO2 PK WND 02042/2354 WSHFT 2345 SLP155 TS OHD MOV E OCNL LTGCG SE P0002 T01940144
KSAF Gnd/Tower
ksafKSAF 010120Z 35012G22KT 5SM VCTS -RA BR FEW050 BKN070 OVC090 14/12 A3029 RMK AO2 PK WND 35030/0105 LTG DSNT SE AND S TSE08 P0012 T01440122
KSBM CTAF/App
ksbmKSBM 010053Z AUTO 31006KT 10SM -RA SCT065 BKN100 21/17 A2999 RMK AO2 LTG DSNT N AND NE RAB48 SLP154 P0000 T02110172
KTVL CTAF/Unicom
ktvlKTVL 010053Z AUTO 03007KT 10SM OVC090 25/10 A3025 RMK AO2 LTG DSNT E SLP187 T02500100
LPPR Twr/App
WX MAP UNAVAILABLELPPR 010100Z 19005KT 9999 OVC007 18/16 Q1014
PGUA Gnd/Twr/App/Center
pguaPGUA 010058Z AUTO 18010KT 10SM BKN011 BKN190 28/25 A2986 RMK AO2 SLP102 T02840250 RVRNO $
RCTP Approach
WX MAP UNAVAILABLERCTP 010100Z 24020G31KT CAVOK 32/23 Q0997 NOSIG RMK A2946
SABE Gnd/Twr/App
WX MAP UNAVAILABLESABE 010100Z 34004KT 1500 BR SCT001 OVC008 17/16 Q1011
YMML/YMMB/YMEN
WX MAP UNAVAILABLEYMML 010100Z 30018G28KT 9999 FEW025 SCT037 BKN069 09/00 Q1005 FM0300 22018G34KT 9999 SHRA SCT030 BKN050 INTER 0130/0400 30025G40KT 4000 SHRAGS BKN020 FM0100 MOD TURB BLW 5000FT
YPAD Gnd/Twr/App/Center
WX MAP UNAVAILABLEYPAD 010120Z 21024G38KT 9999 -SHRA BKN030 09/03 Q1019 INTER 0120/0420 24028G45KT 5000 SHRAGS SCT020 BKN025 FM0100 MOD TURB BLW 5000FT TILL 0300